Time;durP1;ratioP1;P1;durP2;ratioP2;P2;SDS_P1;SDS_P2;PMS_P1;PMS_P2;Temp;Humidity;BMP_temperature;BMP_pressure;BME280_temperature;BME280_humidity;BME280_pressure;Samples;Min_cycle;Max_cycle;Signal;HPM_P1;HPM_P2
2023/01/09 00:02:03;;;;;;;0.50;0.40;;;7.00;99.90;;;;;;5098390;28;20608;-61
2023/01/09 00:04:30;;;;;;;1.00;0.73;;;7.00;99.90;;;;;;5094179;28;20667;-69
2023/01/09 00:06:57;;;;;;;1.13;0.50;;;7.00;99.90;;;;;;5078219;28;20567;-61
2023/01/09 00:09:24;;;;;;;0.83;0.50;;;6.90;99.90;;;;;;5100953;28;20325;-62
2023/01/09 00:11:53;;;;;;;0.60;0.50;;;6.90;99.90;;;;;;5101537;28;20838;-62
2023/01/09 00:14:21;;;;;;;0.60;0.47;;;7.00;99.90;;;;;;5083027;28;20212;-61
2023/01/09 00:16:48;;;;;;;0.80;0.60;;;6.90;99.90;;;;;;5081767;28;20209;-61
2023/01/09 00:19:15;;;;;;;1.47;0.40;;;6.90;99.90;;;;;;5100856;28;20709;-61
2023/01/09 00:21:42;;;;;;;1.23;0.47;;;6.90;99.90;;;;;;5100904;28;20199;-63
2023/01/09 00:24:09;;;;;;;1.77;0.50;;;6.90;99.90;;;;;;5078971;28;20219;-65
2023/01/09 00:26:36;;;;;;;0.80;0.63;;;6.80;99.90;;;;;;5103075;28;20337;-61
2023/01/09 00:29:03;;;;;;;2.47;0.80;;;6.80;99.90;;;;;;5100218;28;20207;-61
2023/01/09 00:31:30;;;;;;;0.70;0.50;;;6.70;99.90;;;;;;5101253;28;20234;-61
2023/01/09 00:34:06;;;;;;;0.50;0.43;;;6.70;99.90;;;;;;5100855;28;20206;-61
2023/01/09 00:36:33;;;;;;;1.17;0.63;;;6.70;99.90;;;;;;5100838;28;20240;-61
2023/01/09 00:39:00;;;;;;;1.80;0.57;;;6.70;99.90;;;;;;5100060;28;20205;-61
2023/01/09 00:41:39;;;;;;;0.77;0.70;;;6.70;99.90;;;;;;5101266;28;20237;-62
2023/01/09 00:44:14;;;;;;;0.50;0.50;;;6.60;99.90;;;;;;5099129;28;20236;-62
2023/01/09 00:46:46;;;;;;;2.40;0.50;;;6.60;99.90;;;;;;5067358;28;20241;-60
2023/01/09 00:49:14;;;;;;;0.63;0.57;;;6.50;99.90;;;;;;5101112;28;20209;-61
2023/01/09 00:51:42;;;;;;;3.07;1.00;;;6.50;99.90;;;;;;5100117;28;20277;-61
2023/01/09 00:54:12;;;;;;;1.83;0.70;;;6.50;99.90;;;;;;5095862;28;20259;-61
2023/01/09 00:56:39;;;;;;;1.43;0.83;;;6.50;99.90;;;;;;5090081;28;20214;-61
2023/01/09 00:59:06;;;;;;;1.03;0.90;;;6.50;99.90;;;;;;5091185;28;20685;-61
2023/01/09 01:01:33;;;;;;;0.87;0.60;;;6.50;99.90;;;;;;5091017;28;20329;-62
2023/01/09 01:07:37;;;;;;;1.03;0.67;;;6.50;99.90;;;;;;5092871;28;20212;-63
2023/01/09 01:09:33;;;;;;;3.80;0.73;;;6.40;99.90;;;;;;5083841;28;20598;-63
2023/01/09 01:12:05;;;;;;;2.63;1.00;;;6.40;99.90;;;;;;5090581;28;20232;-64
2023/01/09 01:14:37;;;;;;;2.20;1.00;;;6.40;99.90;;;;;;5067187;28;20200;-63
2023/01/09 01:17:05;;;;;;;1.13;0.60;;;6.40;99.90;;;;;;5093370;28;20636;-62
2023/01/09 01:19:35;;;;;;;1.30;0.63;;;6.40;99.90;;;;;;5096810;28;20206;-63
2023/01/09 01:22:02;;;;;;;1.53;0.60;;;6.40;99.90;;;;;;5087634;28;20197;-63
2023/01/09 01:24:29;;;;;;;2.03;0.90;;;6.40;99.90;;;;;;5067461;28;20350;-63
2023/01/09 01:26:56;;;;;;;3.57;0.87;;;6.30;99.90;;;;;;5088763;28;20308;-62
2023/01/09 01:29:23;;;;;;;0.73;0.70;;;6.30;99.90;;;;;;5084003;28;20201;-63
2023/01/09 01:31:50;;;;;;;0.90;0.70;;;6.30;99.90;;;;;;5085135;28;20209;-64
2023/01/09 01:34:17;;;;;;;1.17;0.70;;;6.20;99.90;;;;;;5061777;28;20211;-64
2023/01/09 01:36:44;;;;;;;3.37;0.97;;;6.20;99.90;;;;;;5082591;28;20205;-65
2023/01/09 01:39:11;;;;;;;2.47;1.00;;;6.20;99.90;;;;;;5084602;28;20246;-67
2023/01/09 01:41:38;;;;;;;1.43;0.93;;;6.10;99.90;;;;;;5087042;28;20216;-63
2023/01/09 01:44:26;;;;;;;1.97;0.80;;;6.10;99.90;;;;;;5084884;28;20198;-63
2023/01/09 01:46:55;;;;;;;3.80;0.90;;;6.10;99.90;;;;;;5075367;28;20317;-63
2023/01/09 01:49:22;;;;;;;1.30;0.90;;;6.10;99.90;;;;;;5093653;28;20782;-66
2023/01/09 01:51:52;;;;;;;3.77;0.80;;;6.00;99.90;;;;;;5091110;28;20205;-63
2023/01/09 01:54:25;;;;;;;2.70;0.90;;;6.00;99.90;;;;;;5085979;28;20752;-63
2023/01/09 01:56:58;;;;;;;4.77;1.33;;;6.00;99.90;;;;;;5091388;28;20251;-63
2023/01/09 01:59:27;;;;;;;1.23;0.93;;;6.00;99.90;;;;;;5087995;28;20290;-63
2023/01/09 02:01:58;;;;;;;3.20;1.30;;;6.00;99.90;;;;;;5083491;28;20211;-63
2023/01/09 02:04:27;;;;;;;1.97;1.10;;;6.00;99.90;;;;;;5082806;28;20209;-63
2023/01/09 02:06:55;;;;;;;3.70;1.20;;;6.00;99.90;;;;;;5077028;28;20313;-62
2023/01/09 02:09:24;;;;;;;3.97;1.00;;;6.00;99.90;;;;;;5093291;28;20203;-63
2023/01/09 02:11:59;;;;;;;3.00;1.00;;;6.00;99.90;;;;;;5096267;28;20649;-63
2023/01/09 02:14:30;;;;;;;1.67;0.93;;;6.00;99.90;;;;;;5092753;28;20200;-62
2023/01/09 02:17:35;;;;;;;2.97;1.20;;;5.90;99.90;;;;;;5095745;28;20229;-63
2023/01/09 02:20:31;;;;;;;1.20;1.10;;;6.00;99.90;;;;;;5090930;28;20704;-62
2023/01/09 02:23:15;;;;;;;2.90;1.27;;;6.00;99.90;;;;;;5098745;28;20203;-63
2023/01/09 02:25:42;;;;;;;3.73;1.00;;;5.90;99.90;;;;;;5098823;28;20212;-63
2023/01/09 02:28:46;;;;;;;3.50;1.30;;;5.90;99.90;;;;;;5094346;28;20214;-62
2023/01/09 02:31:18;;;;;;;2.77;1.17;;;5.90;99.90;;;;;;5098466;28;20291;-62
2023/01/09 02:34:13;;;;;;;4.43;1.40;;;5.90;99.90;;;;;;5099276;28;20202;-63
2023/01/09 02:36:54;;;;;;;3.63;1.23;;;5.90;99.90;;;;;;5097065;28;20708;-63
2023/01/09 02:39:41;;;;;;;2.20;1.10;;;5.90;99.90;;;;;;5096615;28;20228;-62
2023/01/09 02:42:10;;;;;;;3.27;1.10;;;5.80;99.90;;;;;;5089360;28;20303;-62
2023/01/09 02:44:36;;;;;;;3.97;1.30;;;5.80;99.90;;;;;;5081917;28;20217;-62
2023/01/09 02:47:26;;;;;;;2.37;1.30;;;5.80;99.90;;;;;;5084403;28;20223;-63
2023/01/09 02:49:58;;;;;;;3.30;1.17;;;5.80;99.90;;;;;;5070434;28;20205;-62
2023/01/09 02:52:37;;;;;;;2.90;1.07;;;5.80;99.90;;;;;;5062162;28;20231;-62
2023/01/09 02:55:45;;;;;;;6.03;1.20;;;5.80;99.90;;;;;;5079125;28;20197;-62
2023/01/09 02:58:37;;;;;;;2.53;1.20;;;5.70;99.90;;;;;;5066601;28;20214;-62
2023/01/09 03:01:07;;;;;;;3.83;1.30;;;5.70;99.90;;;;;;5084962;28;20201;-62
2023/01/09 03:04:03;;;;;;;1.67;1.00;;;5.70;99.90;;;;;;5078976;28;20221;-66
2023/01/09 03:06:54;;;;;;;3.43;1.07;;;5.70;99.90;;;;;;5058830;28;20612;-62
2023/01/09 03:09:26;;;;;;;2.40;0.93;;;5.70;99.90;;;;;;5078496;28;20299;-62
2023/01/09 03:12:09;;;;;;;2.50;0.90;;;5.70;99.90;;;;;;5063663;28;20216;-63
2023/01/09 03:14:42;;;;;;;3.03;1.07;;;5.70;99.90;;;;;;5073680;28;20200;-62
2023/01/09 03:17:11;;;;;;;5.23;1.70;;;5.70;99.90;;;;;;5063401;28;20209;-64
2023/01/09 03:19:40;;;;;;;0.83;0.60;;;5.60;99.90;;;;;;5079078;28;20198;-64
2023/01/09 03:22:07;;;;;;;2.50;1.20;;;5.70;99.90;;;;;;5079422;28;20206;-63
2023/01/09 03:24:34;;;;;;;2.43;0.93;;;5.60;99.90;;;;;;5075167;28;20274;-63
2023/01/09 03:27:01;;;;;;;2.10;1.10;;;5.60;99.90;;;;;;5075781;28;20291;-63
2023/01/09 03:29:28;;;;;;;2.13;0.80;;;5.60;99.90;;;;;;5073293;28;20238;-63
2023/01/09 03:31:55;;;;;;;1.70;1.30;;;5.60;99.90;;;;;;5078776;28;20289;-62
2023/01/09 03:34:22;;;;;;;4.27;1.33;;;5.60;99.90;;;;;;5060429;28;21016;-63
2023/01/09 03:36:49;;;;;;;4.40;1.20;;;5.60;99.90;;;;;;5065164;28;20193;-65
2023/01/09 03:39:16;;;;;;;3.87;1.00;;;5.60;99.90;;;;;;5081953;28;20199;-63
2023/01/09 03:41:42;;;;;;;1.90;1.00;;;5.60;99.90;;;;;;5065334;28;20718;-63
2023/01/09 03:44:09;;;;;;;3.23;1.33;;;5.60;99.90;;;;;;5071243;28;20255;-63
2023/01/09 03:46:36;;;;;;;5.67;1.20;;;5.60;99.90;;;;;;5079415;28;20202;-63
2023/01/09 03:49:03;;;;;;;2.40;0.93;;;5.60;99.90;;;;;;5074851;28;20309;-63
2023/01/09 03:51:30;;;;;;;2.30;1.10;;;5.60;99.90;;;;;;5075486;28;20200;-63
2023/01/09 03:53:56;;;;;;;4.80;2.90;;;5.60;99.90;;;;;;5070046;28;20897;-62
2023/01/09 03:56:24;;;;;;;1.73;0.90;;;5.70;99.90;;;;;;5082885;28;20642;-62
2023/01/09 03:58:52;;;;;;;1.83;0.90;;;5.70;99.90;;;;;;5060332;28;20207;-62
2023/01/09 04:01:19;;;;;;;2.03;1.03;;;5.60;99.90;;;;;;5080680;28;20205;-63
2023/01/09 04:03:46;;;;;;;3.33;1.20;;;5.60;99.90;;;;;;5061108;28;20207;-62
2023/01/09 04:06:13;;;;;;;1.23;0.70;;;5.60;99.90;;;;;;5081598;28;20207;-63
2023/01/09 04:08:39;;;;;;;3.20;0.93;;;5.60;99.90;;;;;;5065457;28;20227;-63
2023/01/09 04:11:06;;;;;;;2.93;1.13;;;5.70;99.90;;;;;;5066006;28;20228;-62
2023/01/09 04:13:33;;;;;;;3.70;1.10;;;5.60;99.90;;;;;;5064872;28;20210;-62
2023/01/09 04:16:00;;;;;;;3.50;0.97;;;5.60;99.90;;;;;;5085447;28;20233;-62
2023/01/09 04:18:27;;;;;;;6.20;1.10;;;5.60;99.90;;;;;;5067653;28;20680;-62
2023/01/09 04:20:54;;;;;;;1.97;0.90;;;5.60;99.90;;;;;;5084442;28;20214;-63
2023/01/09 04:23:21;;;;;;;3.57;1.00;;;5.60;99.90;;;;;;5090600;28;20205;-63
2023/01/09 04:25:48;;;;;;;3.70;1.07;;;5.60;99.90;;;;;;5087852;28;20203;-62
2023/01/09 04:28:14;;;;;;;1.13;0.80;;;5.70;99.90;;;;;;5091341;28;20767;-61
2023/01/09 04:30:41;;;;;;;5.80;1.20;;;5.70;99.90;;;;;;5090824;28;20214;-61
2023/01/09 04:33:08;;;;;;;6.60;1.10;;;5.70;99.90;;;;;;5072151;28;20651;-61
2023/01/09 04:35:35;;;;;;;2.23;1.13;;;5.80;99.90;;;;;;5090298;28;20577;-60
2023/01/09 04:38:02;;;;;;;2.67;1.07;;;5.80;99.90;;;;;;5073086;28;20205;-61
2023/01/09 04:40:28;;;;;;;3.47;1.20;;;5.90;99.90;;;;;;5088097;28;20626;-61
2023/01/09 04:42:55;;;;;;;2.90;0.83;;;5.90;99.90;;;;;;5077648;28;20225;-61
2023/01/09 04:45:22;;;;;;;9.20;1.80;;;5.90;99.90;;;;;;5076447;28;20202;-60
2023/01/09 04:47:49;;;;;;;6.50;1.40;;;5.90;99.90;;;;;;5075926;28;20249;-61
2023/01/09 04:50:16;;;;;;;2.43;1.10;;;5.90;99.90;;;;;;5083161;28;20233;-61
2023/01/09 04:52:43;;;;;;;3.37;0.77;;;6.00;99.90;;;;;;5084995;28;20217;-61
2023/01/09 04:55:10;;;;;;;3.83;1.10;;;6.10;99.90;;;;;;5083971;28;20334;-61
2023/01/09 04:57:37;;;;;;;3.30;1.10;;;6.10;99.90;;;;;;5088328;28;20429;-61
2023/01/09 05:00:08;;;;;;;3.43;0.97;;;6.10;99.90;;;;;;5084727;28;20298;-61
2023/01/09 05:02:35;;;;;;;3.33;1.20;;;6.20;99.90;;;;;;5086801;28;20656;-61
2023/01/09 05:05:03;;;;;;;5.60;1.33;;;6.20;99.90;;;;;;5085679;28;20203;-61
2023/01/09 05:07:30;;;;;;;1.83;0.80;;;6.20;99.90;;;;;;5089173;28;20229;-60
2023/01/09 05:09:57;;;;;;;2.43;1.20;;;6.20;99.90;;;;;;5086723;28;20209;-61
2023/01/09 05:12:24;;;;;;;2.97;0.70;;;6.30;99.90;;;;;;5088389;28;20231;-62
2023/01/09 05:14:50;;;;;;;5.13;1.00;;;6.30;99.90;;;;;;5085570;28;20240;-61
2023/01/09 05:17:17;;;;;;;3.13;1.00;;;6.30;99.90;;;;;;5086970;28;20232;-61
2023/01/09 05:19:44;;;;;;;2.77;1.10;;;6.30;99.90;;;;;;5087229;28;20214;-60
2023/01/09 05:22:12;;;;;;;3.53;1.23;;;6.30;99.90;;;;;;5086464;28;20202;-62
2023/01/09 05:24:39;;;;;;;4.57;1.30;;;6.40;99.90;;;;;;5085993;28;20290;-61
2023/01/09 05:27:06;;;;;;;5.93;1.27;;;6.40;99.90;;;;;;5081834;28;20209;-60
2023/01/09 05:29:33;;;;;;;3.10;1.30;;;6.40;99.90;;;;;;5086949;28;20222;-61
2023/01/09 05:32:00;;;;;;;4.40;1.13;;;6.50;99.90;;;;;;5085408;28;20279;-63
2023/01/09 05:34:26;;;;;;;3.00;1.00;;;6.50;99.90;;;;;;5087640;28;20193;-62
2023/01/09 05:36:53;;;;;;;3.10;1.23;;;6.60;99.90;;;;;;5089756;28;20300;-61
2023/01/09 05:39:20;;;;;;;3.00;1.00;;;6.60;99.90;;;;;;5085872;28;20203;-61
2023/01/09 05:41:47;;;;;;;5.47;1.10;;;6.70;99.90;;;;;;5086831;28;20220;-62
2023/01/09 05:44:14;;;;;;;3.13;1.03;;;6.70;99.90;;;;;;5089087;28;21396;-62
2023/01/09 05:46:41;;;;;;;3.93;1.50;;;6.70;99.90;;;;;;5085750;28;20297;-60
2023/01/09 05:49:08;;;;;;;5.03;1.37;;;6.80;99.90;;;;;;5078542;28;20238;-60
2023/01/09 05:51:34;;;;;;;5.63;1.20;;;6.80;99.90;;;;;;5086051;28;20848;-60
2023/01/09 05:54:02;;;;;;;2.43;0.93;;;6.80;99.90;;;;;;5067102;28;20281;-60
2023/01/09 05:56:29;;;;;;;2.37;1.20;;;6.80;99.90;;;;;;5088152;28;20221;-61
2023/01/09 05:58:56;;;;;;;6.90;1.00;;;6.90;99.90;;;;;;5093143;28;20290;-61
2023/01/09 06:01:23;;;;;;;6.20;1.00;;;6.90;99.90;;;;;;5068863;28;20657;-63
2023/01/09 06:03:50;;;;;;;5.77;1.20;;;6.90;99.90;;;;;;5083803;28;20746;-61
2023/01/09 06:06:17;;;;;;;4.60;0.90;;;6.90;99.90;;;;;;5095940;28;20511;-67
2023/01/09 06:08:43;;;;;;;5.37;0.90;;;6.90;99.90;;;;;;5092816;28;20262;-61
2023/01/09 06:11:10;;;;;;;4.20;1.17;;;6.90;99.90;;;;;;5093450;28;20254;-60
2023/01/09 06:13:37;;;;;;;2.23;1.10;;;6.90;99.90;;;;;;5094433;28;20210;-60
2023/01/09 06:16:05;;;;;;;4.37;1.17;;;6.90;99.90;;;;;;5075464;28;20214;-62
2023/01/09 06:18:32;;;;;;;3.63;1.00;;;6.90;99.90;;;;;;5097539;28;20634;-61
2023/01/09 06:20:58;;;;;;;4.77;1.10;;;6.90;99.90;;;;;;5097649;28;20210;-61
2023/01/09 06:23:25;;;;;;;4.67;1.07;;;6.90;99.90;;;;;;5099443;28;20566;-62
2023/01/09 06:25:52;;;;;;;6.30;1.07;;;6.90;99.90;;;;;;5095424;28;20202;-61
2023/01/09 06:28:19;;;;;;;3.60;1.27;;;6.90;99.90;;;;;;5088741;28;20221;-61
2023/01/09 06:30:50;;;;;;;7.57;1.03;;;6.90;99.90;;;;;;5080051;28;20230;-60
2023/01/09 06:33:17;;;;;;;7.13;1.40;;;6.90;99.90;;;;;;5091150;28;20320;-61
2023/01/09 06:35:44;;;;;;;6.57;1.27;;;7.00;99.90;;;;;;5090284;28;20198;-61
2023/01/09 06:38:11;;;;;;;4.07;1.80;;;7.00;99.90;;;;;;5083134;28;20231;-61
2023/01/09 06:40:38;;;;;;;5.10;0.87;;;7.00;99.90;;;;;;5083695;28;20299;-61
2023/01/09 06:43:05;;;;;;;3.07;0.90;;;7.00;99.90;;;;;;5077944;28;20584;-61
2023/01/09 06:45:32;;;;;;;5.70;1.30;;;7.10;99.90;;;;;;5074758;28;20721;-61
2023/01/09 06:47:59;;;;;;;3.50;1.40;;;7.10;99.90;;;;;;4680459;28;10000420;-62
2023/01/09 06:50:26;;;;;;;3.97;1.43;;;7.10;99.90;;;;;;5045135;28;20198;-62
2023/01/09 06:52:52;;;;;;;4.67;1.67;;;7.10;99.90;;;;;;5046260;28;20472;-62
2023/01/09 06:55:20;;;;;;;4.20;1.90;;;7.00;99.90;;;;;;5076092;28;20205;-62
2023/01/09 06:57:46;;;;;;;6.10;1.27;;;7.00;99.90;;;;;;5070349;28;20206;-61
2023/01/09 07:00:14;;;;;;;3.50;1.50;;;7.00;99.90;;;;;;5074507;28;20289;-61
2023/01/09 07:02:40;;;;;;;2.47;1.23;;;7.00;99.90;;;;;;5063339;28;20212;-63
2023/01/09 07:05:07;;;;;;;4.37;1.50;;;7.00;99.90;;;;;;5076152;28;20210;-61
2023/01/09 07:07:34;;;;;;;5.53;1.27;;;7.00;99.90;;;;;;5058953;28;20275;-61
2023/01/09 07:10:01;;;;;;;4.27;1.60;;;7.10;99.90;;;;;;5075885;28;20211;-61
2023/01/09 07:12:28;;;;;;;6.13;2.03;;;7.10;99.90;;;;;;5076057;28;20293;-62
2023/01/09 07:14:54;;;;;;;5.27;1.40;;;7.10;99.90;;;;;;5070332;28;20206;-62
2023/01/09 07:17:23;;;;;;;2.67;1.17;;;7.10;99.90;;;;;;5076000;28;20246;-63
2023/01/09 07:19:50;;;;;;;3.73;1.10;;;7.10;99.90;;;;;;5070140;28;20243;-63
2023/01/09 07:22:17;;;;;;;7.90;1.67;;;7.10;99.90;;;;;;5075803;28;20761;-61
2023/01/09 07:24:44;;;;;;;3.70;1.80;;;7.10;99.90;;;;;;5075841;28;20289;-62
2023/01/09 07:27:11;;;;;;;2.53;1.50;;;7.10;99.90;;;;;;5052602;28;20259;-62
2023/01/09 07:29:38;;;;;;;3.90;1.03;;;7.10;99.90;;;;;;5054066;28;20302;-62
2023/01/09 07:32:05;;;;;;;4.70;1.50;;;7.10;99.90;;;;;;5073597;28;20199;-62
2023/01/09 07:34:32;;;;;;;2.70;0.90;;;7.00;99.90;;;;;;5072472;28;20801;-62
2023/01/09 07:36:59;;;;;;;4.07;1.30;;;7.00;99.90;;;;;;5077952;28;20203;-62
2023/01/09 07:39:26;;;;;;;4.47;1.40;;;7.00;99.90;;;;;;5076124;28;20210;-61
2023/01/09 07:41:53;;;;;;;1.40;1.10;;;7.00;99.90;;;;;;5079110;28;20306;-63
2023/01/09 07:44:20;;;;;;;2.83;1.30;;;7.00;99.90;;;;;;5076075;28;20296;-62
2023/01/09 07:46:46;;;;;;;4.77;1.60;;;6.90;99.90;;;;;;5086641;28;20246;-61
2023/01/09 07:49:13;;;;;;;5.70;2.27;;;7.00;99.90;;;;;;5055870;28;20270;-62
2023/01/09 07:51:42;;;;;;;2.73;1.53;;;6.90;99.90;;;;;;5083441;28;20254;-61
2023/01/09 07:54:10;;;;;;;5.77;1.60;;;6.90;99.90;;;;;;5079730;28;20662;-61
2023/01/09 07:56:37;;;;;;;4.72;1.85;;;6.90;99.90;;;;;;5055532;28;20462;-61
2023/01/09 07:59:04;;;;;;;5.80;2.28;;;6.90;99.90;;;;;;5055271;28;20448;-62
2023/01/09 08:01:31;;;;;;;4.57;2.00;;;6.90;99.90;;;;;;5076255;28;20667;-61
2023/01/09 08:03:58;;;;;;;5.43;2.00;;;6.90;99.90;;;;;;5069540;28;20213;-61
2023/01/09 08:06:25;;;;;;;3.20;1.57;;;6.90;99.90;;;;;;5071935;28;20296;-61
2023/01/09 08:08:51;;;;;;;3.30;1.50;;;6.90;99.90;;;;;;5088801;28;20712;-61
2023/01/09 08:11:18;;;;;;;2.43;2.23;;;6.90;99.90;;;;;;5087243;28;20257;-61
2023/01/09 08:13:45;;;;;;;7.83;2.13;;;6.90;99.90;;;;;;5081616;28;20248;-61
2023/01/09 08:16:12;;;;;;;5.33;2.10;;;6.90;99.90;;;;;;5084024;28;20230;-63
2023/01/09 08:18:39;;;;;;;6.20;1.93;;;6.90;99.90;;;;;;5082313;28;20577;-61
2023/01/09 08:21:05;;;;;;;6.20;1.83;;;6.90;99.90;;;;;;5084682;28;20243;-61
2023/01/09 08:23:32;;;;;;;5.70;2.70;;;6.80;99.90;;;;;;5073821;28;20220;-63
2023/01/09 08:25:59;;;;;;;4.70;2.57;;;6.90;99.90;;;;;;5075703;28;20203;-63
2023/01/09 08:28:26;;;;;;;4.17;2.17;;;6.80;99.90;;;;;;5073422;28;20260;-65
2023/01/09 08:30:53;;;;;;;4.00;2.20;;;6.80;99.90;;;;;;5078906;28;20295;-63
2023/01/09 08:33:20;;;;;;;6.20;2.10;;;6.90;99.90;;;;;;5085489;28;20287;-61
2023/01/09 08:35:47;;;;;;;3.03;1.93;;;6.80;99.90;;;;;;5079695;28;20254;-68
2023/01/09 08:38:14;;;;;;;3.97;2.60;;;6.80;99.90;;;;;;5088018;28;20202;-61
2023/01/09 08:40:41;;;;;;;4.57;2.37;;;6.90;99.90;;;;;;5064160;28;20582;-62
2023/01/09 08:48:39;;;;;;;5.20;2.30;;;6.90;99.90;;;;;;5064698;28;20722;-62
2023/01/09 08:51:06;;;;;;;3.73;2.07;;;6.90;99.90;;;;;;5080768;28;20313;-63
2023/01/09 08:53:33;;;;;;;3.23;2.00;;;6.90;99.90;;;;;;5059659;28;20206;-62
2023/01/09 08:56:00;;;;;;;3.00;1.70;;;6.90;99.90;;;;;;5083447;28;20277;-62
2023/01/09 08:58:27;;;;;;;7.23;1.67;;;6.90;99.90;;;;;;5069366;28;22435;-62
2023/01/09 09:00:53;;;;;;;6.13;2.00;;;6.90;99.90;;;;;;5078095;28;20206;-61
2023/01/09 09:03:20;;;;;;;6.53;1.83;;;6.90;99.90;;;;;;5084790;28;20209;-62
2023/01/09 09:05:47;;;;;;;5.43;2.20;;;6.90;99.90;;;;;;5068202;28;20197;-62
2023/01/09 09:08:15;;;;;;;3.97;1.90;;;7.00;99.90;;;;;;5085938;28;20652;-62
2023/01/09 09:10:42;;;;;;;5.00;2.23;;;7.00;99.90;;;;;;5087633;28;20320;-64
2023/01/09 09:13:09;;;;;;;3.13;2.47;;;7.00;99.90;;;;;;5067819;28;20255;-62
2023/01/09 09:15:36;;;;;;;3.43;2.73;;;7.00;99.90;;;;;;5073911;28;20197;-62
2023/01/09 09:18:05;;;;;;;4.83;2.87;;;7.00;99.90;;;;;;5065204;28;20203;-62
2023/01/09 09:20:35;;;;;;;6.80;3.17;;;7.10;99.90;;;;;;5084017;28;20197;-63
2023/01/09 09:23:02;;;;;;;5.10;3.30;;;7.10;99.90;;;;;;5081349;28;20608;-63
2023/01/09 09:25:30;;;;;;;8.03;3.70;;;7.00;99.90;;;;;;5084067;28;20204;-61
2023/01/09 09:27:56;;;;;;;5.23;3.47;;;7.10;99.90;;;;;;5086832;28;20306;-62
2023/01/09 09:30:24;;;;;;;8.37;3.60;;;7.10;99.90;;;;;;5082610;28;20612;-62
2023/01/09 09:32:50;;;;;;;6.03;3.43;;;7.10;99.90;;;;;;5079602;28;20692;-63
2023/01/09 09:35:19;;;;;;;7.30;3.67;;;7.10;99.90;;;;;;5066012;28;20301;-63
2023/01/09 09:38:00;;;;;;;7.87;4.20;;;7.10;99.90;;;;;;5086941;28;20294;-64
2023/01/09 09:41:02;;;;;;;5.67;3.70;;;7.10;99.90;;;;;;5088117;28;20315;-61
2023/01/09 09:46:35;;;;;;;7.53;3.70;;;7.20;99.90;;;;;;5082464;28;20343;-64
2023/01/09 09:49:11;;;;;;;6.37;3.60;;;7.30;99.90;;;;;;5084612;28;20245;-64
2023/01/09 09:51:41;;;;;;;8.63;3.57;;;7.30;99.90;;;;;;5084535;28;20209;-63
2023/01/09 09:54:13;;;;;;;4.80;3.37;;;7.30;99.90;;;;;;5082812;28;20230;-64
2023/01/09 09:56:55;;;;;;;6.60;3.43;;;7.30;99.90;;;;;;5082231;28;20209;-64
2023/01/09 09:59:27;;;;;;;5.20;3.40;;;7.30;99.90;;;;;;5081121;28;20277;-64
2023/01/09 10:01:59;;;;;;;6.77;3.13;;;7.30;99.90;;;;;;5077533;28;20213;-65
2023/01/09 10:04:29;;;;;;;7.10;3.43;;;7.30;99.90;;;;;;5083465;28;20267;-65
2023/01/09 10:07:08;;;;;;;4.93;3.80;;;7.30;99.90;;;;;;5084082;28;20231;-64
2023/01/09 10:09:53;;;;;;;6.40;3.30;;;7.40;99.90;;;;;;5070164;28;20258;-64
2023/01/09 10:12:30;;;;;;;4.60;3.50;;;7.40;99.90;;;;;;5086420;28;20945;-65
2023/01/09 10:14:59;;;;;;;5.37;3.37;;;7.40;99.90;;;;;;5067785;28;20587;-64
2023/01/09 10:17:50;;;;;;;10.40;4.43;;;7.40;99.90;;;;;;5077877;28;21787;-65
2023/01/09 10:20:23;;;;;;;8.87;4.10;;;7.50;99.90;;;;;;5083472;28;20214;-64
2023/01/09 10:23:22;;;;;;;10.10;3.47;;;7.50;99.90;;;;;;5081561;28;20635;-64
2023/01/09 10:25:52;;;;;;;9.57;3.30;;;7.50;99.90;;;;;;5083898;28;20206;-64
2023/01/09 10:28:22;;;;;;;4.00;2.87;;;7.40;99.90;;;;;;5080670;28;20275;-64
2023/01/09 10:30:57;;;;;;;3.23;2.60;;;7.50;99.90;;;;;;5085506;28;20705;-65
2023/01/09 10:33:35;;;;;;;3.63;2.33;;;7.50;99.90;;;;;;5065619;28;20687;-65
2023/01/09 10:36:33;;;;;;;6.03;2.70;;;7.60;99.90;;;;;;5082320;28;20314;-64
2023/01/09 10:39:03;;;;;;;5.07;2.40;;;7.60;99.90;;;;;;5085777;28;20642;-63
2023/01/09 10:41:36;;;;;;;3.60;2.20;;;7.60;99.90;;;;;;5085175;28;22962;-64
2023/01/09 10:44:19;;;;;;;5.27;2.30;;;7.50;99.90;;;;;;5080208;28;20198;-64
2023/01/09 10:46:53;;;;;;;7.17;2.17;;;7.50;99.90;;;;;;5082585;28;20285;-64
2023/01/09 10:49:22;;;;;;;8.33;2.63;;;7.40;99.90;;;;;;5080716;28;20246;-63
2023/01/09 10:52:04;;;;;;;6.37;2.43;;;7.50;99.90;;;;;;5083057;28;20917;-64
2023/01/09 10:54:31;;;;;;;6.03;2.60;;;7.50;99.90;;;;;;5078825;28;20206;-64
2023/01/09 10:57:36;;;;;;;7.40;3.33;;;7.50;99.90;;;;;;5085605;28;20205;-67
2023/01/09 11:00:04;;;;;;;8.13;3.10;;;7.50;99.90;;;;;;5082555;28;20211;-63
2023/01/09 11:02:33;;;;;;;4.77;2.57;;;7.50;99.90;;;;;;5082786;28;20199;-64
2023/01/09 11:05:00;;;;;;;8.63;3.10;;;7.50;99.90;;;;;;5083826;28;20252;-64
2023/01/09 11:07:36;;;;;;;5.13;3.33;;;7.50;99.90;;;;;;5084312;28;20325;-64
2023/01/09 11:10:06;;;;;;;4.40;2.43;;;7.60;99.90;;;;;;5081985;28;20804;-63
2023/01/09 11:12:34;;;;;;;5.50;3.03;;;7.60;99.90;;;;;;5080370;28;20204;-63
2023/01/09 11:15:19;;;;;;;6.37;3.30;;;7.70;99.90;;;;;;5082054;28;20312;-64
2023/01/09 11:17:49;;;;;;;7.13;3.30;;;7.80;99.90;;;;;;5083417;28;20208;-63
2023/01/09 11:20:17;;;;;;;5.80;3.20;;;7.80;99.90;;;;;;5079755;28;20230;-64
2023/01/09 11:22:49;;;;;;;4.10;2.80;;;7.80;99.90;;;;;;5084798;28;20206;-64
2023/01/09 11:25:19;;;;;;;9.17;2.90;;;7.90;99.90;;;;;;5086071;28;20804;-64
2023/01/09 11:28:05;;;;;;;3.83;2.90;;;8.00;99.90;;;;;;5087233;28;20325;-64
2023/01/09 11:30:36;;;;;;;3.13;2.73;;;8.00;99.90;;;;;;5088265;28;20677;-64
2023/01/09 11:33:23;;;;;;;8.37;2.37;;;8.20;99.90;;;;;;5094991;28;20230;-64
2023/01/09 11:35:59;;;;;;;7.73;2.10;;;8.20;99.90;;;;;;5091306;28;20741;-62
2023/01/09 11:38:26;;;;;;;5.63;2.13;;;8.10;99.90;;;;;;5088472;28;20304;-63
2023/01/09 11:41:03;;;;;;;9.67;2.60;;;8.20;99.90;;;;;;5084797;28;20219;-63
2023/01/09 11:43:34;;;;;;;3.80;1.73;;;8.10;99.90;;;;;;5085192;28;20729;-63
2023/01/09 11:46:05;;;;;;;2.67;1.50;;;8.00;99.90;;;;;;5082218;28;20679;-63
2023/01/09 11:48:37;;;;;;;4.10;1.53;;;8.00;99.90;;;;;;5088600;28;20725;-63
2023/01/09 11:51:16;;;;;;;4.83;1.83;;;8.10;99.90;;;;;;5067135;28;20861;-63
2023/01/09 11:54:07;;;;;;;8.07;2.77;;;8.30;99.90;;;;;;5084004;28;20227;-63
2023/01/09 11:56:36;;;;;;;10.83;2.60;;;8.20;99.90;;;;;;5071380;28;20216;-63
2023/01/09 11:59:15;;;;;;;5.30;2.40;;;8.50;99.90;;;;;;5066994;28;20220;-63
2023/01/09 12:02:16;;;;;;;7.87;3.13;;;9.10;99.90;;;;;;5086762;28;20233;-63
2023/01/09 12:05:09;;;;;;;7.20;2.70;;;8.90;99.90;;;;;;5079080;28;20205;-63
2023/01/09 12:07:51;;;;;;;8.37;2.80;;;8.60;99.90;;;;;;5077844;28;20319;-63
2023/01/09 12:10:36;;;;;;;10.53;2.67;;;8.60;99.90;;;;;;5089309;28;20307;-63
2023/01/09 12:13:13;;;;;;;9.40;3.40;;;8.50;99.90;;;;;;5087229;28;20298;-66
2023/01/09 12:16:18;;;;;;;10.23;3.57;;;8.50;99.90;;;;;;5088720;28;20627;-64
2023/01/09 12:19:10;;;;;;;7.43;3.40;;;8.40;99.90;;;;;;5083902;28;20374;-64
2023/01/09 12:22:02;;;;;;;7.60;3.30;;;8.40;99.90;;;;;;5086978;28;20554;-63
2023/01/09 12:24:53;;;;;;;5.57;2.70;;;8.30;99.90;;;;;;5046398;28;20680;-63
2023/01/09 12:27:39;;;;;;;6.03;2.43;;;8.30;99.90;;;;;;5088599;28;20302;-63
2023/01/09 12:30:22;;;;;;;7.57;2.70;;;8.20;99.90;;;;;;5085979;28;20555;-63
2023/01/09 12:32:55;;;;;;;7.10;2.70;;;8.20;99.90;;;;;;5088192;28;20680;-63
2023/01/09 12:35:49;;;;;;;7.13;2.83;;;8.30;99.90;;;;;;5067418;28;20840;-63
2023/01/09 12:38:28;;;;;;;8.17;2.93;;;8.30;99.90;;;;;;5083059;28;20245;-63
2023/01/09 12:41:07;;;;;;;10.87;2.73;;;8.30;99.90;;;;;;5070280;28;20203;-64
2023/01/09 12:43:50;;;;;;;8.50;3.03;;;8.30;99.90;;;;;;5088941;28;20197;-63
2023/01/09 12:47:00;;;;;;;7.60;2.73;;;8.50;99.90;;;;;;5063702;28;20641;-63
2023/01/09 12:49:29;;;;;;;8.10;2.97;;;8.60;99.90;;;;;;5034857;28;20279;-64
2023/01/09 12:52:11;;;;;;;5.73;3.37;;;8.80;99.90;;;;;;5090508;28;20197;-64
2023/01/09 12:54:57;;;;;;;10.47;3.00;;;8.90;99.90;;;;;;5089185;28;20286;-64
2023/01/09 12:57:34;;;;;;;6.40;2.80;;;8.70;99.90;;;;;;5086769;28;20190;-63
2023/01/09 13:00:26;;;;;;;11.07;3.10;;;8.50;99.90;;;;;;5085603;28;20212;-64
2023/01/09 13:03:00;;;;;;;9.30;3.43;;;8.60;99.90;;;;;;5072331;28;20662;-63
2023/01/09 13:06:00;;;;;;;8.27;2.50;;;8.60;99.90;;;;;;5084116;28;20203;-63
2023/01/09 13:08:39;;;;;;;3.90;1.80;;;8.50;99.90;;;;;;5081931;28;20723;-63
2023/01/09 13:11:31;;;;;;;4.77;1.77;;;8.60;99.90;;;;;;5086453;28;20304;-63
2023/01/09 13:14:16;;;;;;;5.20;1.90;;;8.50;99.90;;;;;;5085748;28;20217;-62
2023/01/09 13:16:48;;;;;;;5.67;2.37;;;8.40;99.90;;;;;;5087696;28;20210;-63
2023/01/09 13:19:36;;;;;;;7.70;1.70;;;8.50;99.90;;;;;;5082023;28;20656;-61
2023/01/09 13:22:05;;;;;;;6.97;2.00;;;8.70;99.90;;;;;;5068918;28;20273;-64
2023/01/09 13:24:59;;;;;;;10.27;2.40;;;8.70;99.90;;;;;;5088141;28;20199;-65
2023/01/09 13:27:33;;;;;;;6.00;1.80;;;8.70;99.90;;;;;;5087359;28;20244;-63
2023/01/09 13:30:12;;;;;;;7.83;1.87;;;9.00;99.90;;;;;;5080396;28;20212;-63
2023/01/09 13:33:11;;;;;;;4.67;1.90;;;8.80;99.90;;;;;;5084675;28;20302;-64
2023/01/09 13:35:52;;;;;;;4.13;2.30;;;8.60;99.90;;;;;;5080983;28;20670;-63